sensor_id;sensor_type;location;lat;lon;timestamp;P1;durP1;ratioP1;P2;durP2;ratioP2
5845;SDS011;2949;50.778;7.094;2024-01-16T00:01:44;12.73;;;6.10;;
5845;SDS011;2949;50.778;7.094;2024-01-16T00:04:10;17.47;;;6.40;;
5845;SDS011;2949;50.778;7.094;2024-01-16T00:06:39;13.83;;;5.97;;
5845;SDS011;2949;50.778;7.094;2024-01-16T00:09:05;17.70;;;6.67;;
5845;SDS011;2949;50.778;7.094;2024-01-16T00:11:31;12.43;;;5.60;;
5845;SDS011;2949;50.778;7.094;2024-01-16T00:13:57;16.57;;;6.27;;
5845;SDS011;2949;50.778;7.094;2024-01-16T00:16:22;11.33;;;6.83;;
5845;SDS011;2949;50.778;7.094;2024-01-16T00:18:48;11.87;;;5.60;;
5845;SDS011;2949;50.778;7.094;2024-01-16T00:21:13;10.87;;;6.40;;
5845;SDS011;2949;50.778;7.094;2024-01-16T00:23:39;19.60;;;6.03;;
5845;SDS011;2949;50.778;7.094;2024-01-16T00:26:04;8.27;;;5.43;;
5845;SDS011;2949;50.778;7.094;2024-01-16T00:28:31;13.13;;;6.07;;
5845;SDS011;2949;50.778;7.094;2024-01-16T00:30:57;16.03;;;5.87;;
5845;SDS011;2949;50.778;7.094;2024-01-16T00:33:22;12.27;;;5.97;;
5845;SDS011;2949;50.778;7.094;2024-01-16T00:35:48;14.50;;;6.30;;
5845;SDS011;2949;50.778;7.094;2024-01-16T00:38:13;16.27;;;6.20;;
5845;SDS011;2949;50.778;7.094;2024-01-16T00:40:39;17.37;;;5.47;;
5845;SDS011;2949;50.778;7.094;2024-01-16T00:43:04;19.07;;;6.80;;
5845;SDS011;2949;50.778;7.094;2024-01-16T00:45:30;14.97;;;6.40;;
5845;SDS011;2949;50.778;7.094;2024-01-16T00:47:55;13.50;;;6.60;;
5845;SDS011;2949;50.778;7.094;2024-01-16T00:50:21;12.33;;;5.73;;
5845;SDS011;2949;50.778;7.094;2024-01-16T00:52:46;17.10;;;5.90;;
5845;SDS011;2949;50.778;7.094;2024-01-16T00:55:12;8.40;;;5.50;;
5845;SDS011;2949;50.778;7.094;2024-01-16T00:57:38;19.07;;;5.47;;
5845;SDS011;2949;50.778;7.094;2024-01-16T01:00:04;14.60;;;5.60;;
5845;SDS011;2949;50.778;7.094;2024-01-16T01:02:30;19.77;;;6.47;;
5845;SDS011;2949;50.778;7.094;2024-01-16T01:04:55;16.10;;;5.93;;
5845;SDS011;2949;50.778;7.094;2024-01-16T01:07:21;16.03;;;5.03;;
5845;SDS011;2949;50.778;7.094;2024-01-16T01:09:46;8.83;;;5.17;;
5845;SDS011;2949;50.778;7.094;2024-01-16T01:12:12;9.30;;;5.07;;
5845;SDS011;2949;50.778;7.094;2024-01-16T01:14:37;16.83;;;5.30;;
5845;SDS011;2949;50.778;7.094;2024-01-16T01:17:03;10.53;;;5.80;;
5845;SDS011;2949;50.778;7.094;2024-01-16T01:19:29;14.33;;;5.37;;
5845;SDS011;2949;50.778;7.094;2024-01-16T01:21:54;11.30;;;5.53;;
5845;SDS011;2949;50.778;7.094;2024-01-16T01:24:20;22.53;;;5.77;;
5845;SDS011;2949;50.778;7.094;2024-01-16T01:26:45;9.40;;;5.00;;
5845;SDS011;2949;50.778;7.094;2024-01-16T01:29:11;16.20;;;5.17;;
5845;SDS011;2949;50.778;7.094;2024-01-16T01:31:36;13.93;;;5.10;;
5845;SDS011;2949;50.778;7.094;2024-01-16T01:34:02;14.43;;;4.83;;
5845;SDS011;2949;50.778;7.094;2024-01-16T01:36:29;10.13;;;4.77;;
5845;SDS011;2949;50.778;7.094;2024-01-16T01:38:54;10.23;;;5.93;;
5845;SDS011;2949;50.778;7.094;2024-01-16T01:41:20;11.73;;;5.57;;
5845;SDS011;2949;50.778;7.094;2024-01-16T01:43:45;14.10;;;5.27;;
5845;SDS011;2949;50.778;7.094;2024-01-16T01:48:42;7.27;;;4.30;;
5845;SDS011;2949;50.778;7.094;2024-01-16T01:51:09;9.17;;;5.07;;
5845;SDS011;2949;50.778;7.094;2024-01-16T01:53:36;10.77;;;4.83;;
5845;SDS011;2949;50.778;7.094;2024-01-16T01:56:04;12.43;;;4.83;;
5845;SDS011;2949;50.778;7.094;2024-01-16T01:58:36;14.03;;;4.50;;
5845;SDS011;2949;50.778;7.094;2024-01-16T02:01:03;11.63;;;4.97;;
5845;SDS011;2949;50.778;7.094;2024-01-16T02:03:30;12.50;;;4.60;;
5845;SDS011;2949;50.778;7.094;2024-01-16T02:06:00;7.77;;;4.00;;
5845;SDS011;2949;50.778;7.094;2024-01-16T02:08:26;9.10;;;5.23;;
5845;SDS011;2949;50.778;7.094;2024-01-16T02:10:51;11.63;;;5.33;;
5845;SDS011;2949;50.778;7.094;2024-01-16T02:13:18;11.20;;;5.20;;
5845;SDS011;2949;50.778;7.094;2024-01-16T02:15:48;8.60;;;5.60;;
5845;SDS011;2949;50.778;7.094;2024-01-16T02:18:14;11.33;;;6.53;;
5845;SDS011;2949;50.778;7.094;2024-01-16T02:20:39;7.17;;;5.30;;
5845;SDS011;2949;50.778;7.094;2024-01-16T02:23:05;13.70;;;6.17;;
5845;SDS011;2949;50.778;7.094;2024-01-16T02:25:32;17.10;;;5.60;;
5845;SDS011;2949;50.778;7.094;2024-01-16T02:27:59;21.83;;;8.83;;
5845;SDS011;2949;50.778;7.094;2024-01-16T02:30:25;11.90;;;6.57;;
5845;SDS011;2949;50.778;7.094;2024-01-16T02:32:51;19.33;;;6.57;;
5845;SDS011;2949;50.778;7.094;2024-01-16T02:35:16;14.47;;;6.43;;
5845;SDS011;2949;50.778;7.094;2024-01-16T02:37:43;18.00;;;7.60;;
5845;SDS011;2949;50.778;7.094;2024-01-16T02:40:09;10.50;;;6.37;;
5845;SDS011;2949;50.778;7.094;2024-01-16T02:42:35;18.50;;;6.93;;
5845;SDS011;2949;50.778;7.094;2024-01-16T02:45:02;16.00;;;6.73;;
5845;SDS011;2949;50.778;7.094;2024-01-16T02:47:29;16.17;;;6.37;;
5845;SDS011;2949;50.778;7.094;2024-01-16T02:49:55;15.53;;;6.50;;
5845;SDS011;2949;50.778;7.094;2024-01-16T02:52:20;11.10;;;6.40;;
5845;SDS011;2949;50.778;7.094;2024-01-16T02:54:46;26.80;;;7.20;;
5845;SDS011;2949;50.778;7.094;2024-01-16T02:57:11;12.60;;;6.33;;
5845;SDS011;2949;50.778;7.094;2024-01-16T02:59:37;14.73;;;6.97;;
5845;SDS011;2949;50.778;7.094;2024-01-16T03:02:03;25.43;;;6.47;;
5845;SDS011;2949;50.778;7.094;2024-01-16T03:04:29;20.37;;;7.00;;
5845;SDS011;2949;50.778;7.094;2024-01-16T03:06:54;15.80;;;6.10;;
5845;SDS011;2949;50.778;7.094;2024-01-16T03:09:20;26.83;;;7.10;;
5845;SDS011;2949;50.778;7.094;2024-01-16T03:11:45;23.57;;;7.10;;
5845;SDS011;2949;50.778;7.094;2024-01-16T03:14:11;17.50;;;5.80;;
5845;SDS011;2949;50.778;7.094;2024-01-16T03:16:38;18.17;;;7.50;;
5845;SDS011;2949;50.778;7.094;2024-01-16T03:19:04;12.73;;;5.70;;
5845;SDS011;2949;50.778;7.094;2024-01-16T03:21:30;12.13;;;5.50;;
5845;SDS011;2949;50.778;7.094;2024-01-16T03:23:55;16.70;;;6.17;;
5845;SDS011;2949;50.778;7.094;2024-01-16T03:26:21;13.13;;;6.93;;
5845;SDS011;2949;50.778;7.094;2024-01-16T03:28:46;22.90;;;5.83;;
5845;SDS011;2949;50.778;7.094;2024-01-16T03:31:12;15.20;;;6.60;;
5845;SDS011;2949;50.778;7.094;2024-01-16T03:33:39;11.60;;;6.50;;
5845;SDS011;2949;50.778;7.094;2024-01-16T03:36:07;14.37;;;7.20;;
5845;SDS011;2949;50.778;7.094;2024-01-16T03:38:34;13.30;;;6.30;;
5845;SDS011;2949;50.778;7.094;2024-01-16T03:41:03;16.20;;;5.80;;
5845;SDS011;2949;50.778;7.094;2024-01-16T03:43:29;16.87;;;5.83;;
5845;SDS011;2949;50.778;7.094;2024-01-16T03:45:58;11.80;;;6.17;;
5845;SDS011;2949;50.778;7.094;2024-01-16T03:48:23;15.30;;;7.03;;
5845;SDS011;2949;50.778;7.094;2024-01-16T03:50:49;10.60;;;4.97;;
5845;SDS011;2949;50.778;7.094;2024-01-16T03:53:14;13.10;;;6.80;;
5845;SDS011;2949;50.778;7.094;2024-01-16T03:55:40;12.90;;;6.50;;
5845;SDS011;2949;50.778;7.094;2024-01-16T03:58:05;16.90;;;5.80;;
5845;SDS011;2949;50.778;7.094;2024-01-16T04:00:31;12.80;;;6.73;;
5845;SDS011;2949;50.778;7.094;2024-01-16T04:02:56;11.90;;;5.90;;
5845;SDS011;2949;50.778;7.094;2024-01-16T04:05:22;10.07;;;6.23;;
5845;SDS011;2949;50.778;7.094;2024-01-16T04:07:47;15.90;;;6.33;;
5845;SDS011;2949;50.778;7.094;2024-01-16T04:10:13;12.97;;;5.93;;
5845;SDS011;2949;50.778;7.094;2024-01-16T04:12:38;14.47;;;7.00;;
5845;SDS011;2949;50.778;7.094;2024-01-16T04:15:04;14.13;;;6.53;;
5845;SDS011;2949;50.778;7.094;2024-01-16T04:17:30;15.70;;;8.07;;
5845;SDS011;2949;50.778;7.094;2024-01-16T04:19:55;8.57;;;5.40;;
5845;SDS011;2949;50.778;7.094;2024-01-16T04:22:21;21.47;;;8.50;;
5845;SDS011;2949;50.778;7.094;2024-01-16T04:24:46;17.47;;;7.83;;
5845;SDS011;2949;50.778;7.094;2024-01-16T04:27:12;17.83;;;6.23;;
5845;SDS011;2949;50.778;7.094;2024-01-16T04:29:38;10.23;;;7.00;;
5845;SDS011;2949;50.778;7.094;2024-01-16T04:32:04;16.63;;;7.07;;
5845;SDS011;2949;50.778;7.094;2024-01-16T04:34:29;15.13;;;6.67;;
5845;SDS011;2949;50.778;7.094;2024-01-16T04:36:55;14.83;;;7.50;;
5845;SDS011;2949;50.778;7.094;2024-01-16T04:39:20;14.13;;;7.20;;
5845;SDS011;2949;50.778;7.094;2024-01-16T04:41:49;10.50;;;6.40;;
5845;SDS011;2949;50.778;7.094;2024-01-16T04:44:14;17.63;;;6.90;;
5845;SDS011;2949;50.778;7.094;2024-01-16T04:46:40;10.77;;;6.33;;
5845;SDS011;2949;50.778;7.094;2024-01-16T04:49:06;16.50;;;7.60;;
5845;SDS011;2949;50.778;7.094;2024-01-16T04:51:31;11.93;;;6.33;;
5845;SDS011;2949;50.778;7.094;2024-01-16T04:53:57;11.00;;;6.03;;
5845;SDS011;2949;50.778;7.094;2024-01-16T04:56:22;21.70;;;7.77;;
5845;SDS011;2949;50.778;7.094;2024-01-16T04:58:48;14.83;;;5.30;;
5845;SDS011;2949;50.778;7.094;2024-01-16T05:01:13;20.00;;;6.13;;
5845;SDS011;2949;50.778;7.094;2024-01-16T05:03:39;11.80;;;5.70;;
5845;SDS011;2949;50.778;7.094;2024-01-16T05:06:04;14.07;;;5.73;;
5845;SDS011;2949;50.778;7.094;2024-01-16T05:08:36;18.67;;;6.30;;
5845;SDS011;2949;50.778;7.094;2024-01-16T05:11:02;21.27;;;6.80;;
5845;SDS011;2949;50.778;7.094;2024-01-16T05:13:27;21.73;;;6.40;;
5845;SDS011;2949;50.778;7.094;2024-01-16T05:15:53;17.23;;;6.43;;
5845;SDS011;2949;50.778;7.094;2024-01-16T05:18:18;13.60;;;5.60;;
5845;SDS011;2949;50.778;7.094;2024-01-16T05:20:44;12.50;;;5.53;;
5845;SDS011;2949;50.778;7.094;2024-01-16T05:23:09;11.50;;;5.23;;
5845;SDS011;2949;50.778;7.094;2024-01-16T05:25:35;12.43;;;5.30;;
5845;SDS011;2949;50.778;7.094;2024-01-16T05:28:00;13.20;;;5.40;;
5845;SDS011;2949;50.778;7.094;2024-01-16T05:30:26;7.67;;;5.83;;
5845;SDS011;2949;50.778;7.094;2024-01-16T05:32:51;14.90;;;6.40;;
5845;SDS011;2949;50.778;7.094;2024-01-16T05:35:17;12.67;;;5.77;;
5845;SDS011;2949;50.778;7.094;2024-01-16T05:37:43;16.23;;;6.47;;
5845;SDS011;2949;50.778;7.094;2024-01-16T05:40:08;9.87;;;5.40;;
5845;SDS011;2949;50.778;7.094;2024-01-16T05:42:34;16.70;;;5.63;;
5845;SDS011;2949;50.778;7.094;2024-01-16T05:45:00;13.10;;;5.10;;
5845;SDS011;2949;50.778;7.094;2024-01-16T05:47:27;10.30;;;4.97;;
5845;SDS011;2949;50.778;7.094;2024-01-16T05:49:54;10.70;;;5.20;;
5845;SDS011;2949;50.778;7.094;2024-01-16T05:52:19;13.63;;;5.07;;
5845;SDS011;2949;50.778;7.094;2024-01-16T05:54:45;10.17;;;4.80;;
5845;SDS011;2949;50.778;7.094;2024-01-16T05:57:10;11.73;;;4.80;;
5845;SDS011;2949;50.778;7.094;2024-01-16T05:59:36;15.53;;;5.20;;
5845;SDS011;2949;50.778;7.094;2024-01-16T06:02:01;11.20;;;5.07;;
5845;SDS011;2949;50.778;7.094;2024-01-16T06:04:27;26.17;;;5.73;;
5845;SDS011;2949;50.778;7.094;2024-01-16T06:06:52;18.47;;;5.87;;
5845;SDS011;2949;50.778;7.094;2024-01-16T06:09:18;13.70;;;4.80;;
5845;SDS011;2949;50.778;7.094;2024-01-16T06:11:43;12.30;;;5.63;;
5845;SDS011;2949;50.778;7.094;2024-01-16T06:14:09;12.93;;;6.33;;
5845;SDS011;2949;50.778;7.094;2024-01-16T06:16:36;11.77;;;4.67;;
5845;SDS011;2949;50.778;7.094;2024-01-16T06:19:02;17.03;;;5.70;;
5845;SDS011;2949;50.778;7.094;2024-01-16T06:21:29;19.43;;;4.90;;
5845;SDS011;2949;50.778;7.094;2024-01-16T06:23:55;5.47;;;4.17;;
5845;SDS011;2949;50.778;7.094;2024-01-16T06:26:20;7.83;;;3.93;;
5845;SDS011;2949;50.778;7.094;2024-01-16T06:28:46;10.80;;;4.67;;
5845;SDS011;2949;50.778;7.094;2024-01-16T06:31:12;12.13;;;4.67;;
5845;SDS011;2949;50.778;7.094;2024-01-16T06:33:37;10.23;;;4.10;;
5845;SDS011;2949;50.778;7.094;2024-01-16T06:36:03;10.00;;;3.67;;
5845;SDS011;2949;50.778;7.094;2024-01-16T06:38:31;6.10;;;3.90;;
5845;SDS011;2949;50.778;7.094;2024-01-16T06:40:57;10.93;;;4.40;;
5845;SDS011;2949;50.778;7.094;2024-01-16T06:43:23;6.30;;;3.30;;
5845;SDS011;2949;50.778;7.094;2024-01-16T06:45:49;13.00;;;3.80;;
5845;SDS011;2949;50.778;7.094;2024-01-16T06:48:14;6.97;;;3.90;;
5845;SDS011;2949;50.778;7.094;2024-01-16T06:50:40;9.13;;;4.00;;
5845;SDS011;2949;50.778;7.094;2024-01-16T06:53:06;7.43;;;3.53;;
5845;SDS011;2949;50.778;7.094;2024-01-16T06:55:32;14.60;;;4.20;;
5845;SDS011;2949;50.778;7.094;2024-01-16T06:57:57;9.13;;;3.50;;
5845;SDS011;2949;50.778;7.094;2024-01-16T07:00:23;7.70;;;3.53;;
5845;SDS011;2949;50.778;7.094;2024-01-16T07:02:51;11.07;;;3.10;;
5845;SDS011;2949;50.778;7.094;2024-01-16T07:05:17;17.63;;;3.57;;
5845;SDS011;2949;50.778;7.094;2024-01-16T07:07:42;15.03;;;3.57;;
5845;SDS011;2949;50.778;7.094;2024-01-16T07:10:08;10.00;;;3.50;;
5845;SDS011;2949;50.778;7.094;2024-01-16T07:12:38;15.83;;;3.20;;
5845;SDS011;2949;50.778;7.094;2024-01-16T07:15:04;19.93;;;3.70;;
5845;SDS011;2949;50.778;7.094;2024-01-16T07:17:30;6.37;;;2.47;;
5845;SDS011;2949;50.778;7.094;2024-01-16T07:19:55;13.43;;;3.63;;
5845;SDS011;2949;50.778;7.094;2024-01-16T07:22:21;7.63;;;2.90;;
5845;SDS011;2949;50.778;7.094;2024-01-16T07:24:47;13.93;;;2.07;;
5845;SDS011;2949;50.778;7.094;2024-01-16T07:27:12;8.43;;;1.90;;
5845;SDS011;2949;50.778;7.094;2024-01-16T07:29:38;7.10;;;2.50;;
5845;SDS011;2949;50.778;7.094;2024-01-16T07:32:04;5.20;;;1.97;;
5845;SDS011;2949;50.778;7.094;2024-01-16T07:34:30;7.40;;;1.73;;
5845;SDS011;2949;50.778;7.094;2024-01-16T07:36:55;3.47;;;1.80;;
5845;SDS011;2949;50.778;7.094;2024-01-16T07:39:21;9.13;;;2.57;;
5845;SDS011;2949;50.778;7.094;2024-01-16T07:41:47;8.77;;;2.40;;
5845;SDS011;2949;50.778;7.094;2024-01-16T07:44:13;5.47;;;1.97;;
5845;SDS011;2949;50.778;7.094;2024-01-16T07:46:38;9.30;;;1.83;;
5845;SDS011;2949;50.778;7.094;2024-01-16T07:49:04;9.27;;;2.23;;
5845;SDS011;2949;50.778;7.094;2024-01-16T07:51:30;6.17;;;2.17;;
5845;SDS011;2949;50.778;7.094;2024-01-16T07:54:06;12.27;;;2.23;;
5845;SDS011;2949;50.778;7.094;2024-01-16T07:56:35;9.83;;;2.07;;
5845;SDS011;2949;50.778;7.094;2024-01-16T07:59:01;6.83;;;1.80;;
5845;SDS011;2949;50.778;7.094;2024-01-16T08:01:27;7.80;;;2.47;;
5845;SDS011;2949;50.778;7.094;2024-01-16T08:03:56;8.57;;;2.03;;
5845;SDS011;2949;50.778;7.094;2024-01-16T08:06:22;11.27;;;2.17;;
5845;SDS011;2949;50.778;7.094;2024-01-16T08:08:48;7.10;;;2.47;;
5845;SDS011;2949;50.778;7.094;2024-01-16T08:11:14;9.40;;;2.10;;
5845;SDS011;2949;50.778;7.094;2024-01-16T08:13:40;3.80;;;1.97;;
5845;SDS011;2949;50.778;7.094;2024-01-16T08:16:06;4.20;;;2.00;;
5845;SDS011;2949;50.778;7.094;2024-01-16T08:18:32;10.50;;;1.77;;
5845;SDS011;2949;50.778;7.094;2024-01-16T08:20:58;7.37;;;2.00;;
5845;SDS011;2949;50.778;7.094;2024-01-16T08:23:23;14.33;;;2.43;;
5845;SDS011;2949;50.778;7.094;2024-01-16T08:25:49;4.97;;;1.70;;
5845;SDS011;2949;50.778;7.094;2024-01-16T08:28:16;10.13;;;2.93;;
5845;SDS011;2949;50.778;7.094;2024-01-16T08:30:42;9.80;;;1.87;;
5845;SDS011;2949;50.778;7.094;2024-01-16T08:33:08;11.27;;;2.23;;
5845;SDS011;2949;50.778;7.094;2024-01-16T08:35:34;7.50;;;2.30;;
5845;SDS011;2949;50.778;7.094;2024-01-16T08:37:59;3.33;;;2.20;;
5845;SDS011;2949;50.778;7.094;2024-01-16T08:40:26;5.60;;;1.90;;
5845;SDS011;2949;50.778;7.094;2024-01-16T08:42:51;4.07;;;1.80;;
5845;SDS011;2949;50.778;7.094;2024-01-16T08:45:20;9.73;;;2.60;;
5845;SDS011;2949;50.778;7.094;2024-01-16T08:47:46;6.90;;;2.17;;
5845;SDS011;2949;50.778;7.094;2024-01-16T08:50:11;9.00;;;1.90;;
5845;SDS011;2949;50.778;7.094;2024-01-16T08:52:37;3.53;;;1.50;;
5845;SDS011;2949;50.778;7.094;2024-01-16T08:55:03;7.93;;;2.07;;
5845;SDS011;2949;50.778;7.094;2024-01-16T08:57:29;7.50;;;1.43;;
5845;SDS011;2949;50.778;7.094;2024-01-16T08:59:54;3.67;;;1.67;;
5845;SDS011;2949;50.778;7.094;2024-01-16T09:02:20;5.87;;;1.93;;
5845;SDS011;2949;50.778;7.094;2024-01-16T09:04:46;11.80;;;2.00;;
5845;SDS011;2949;50.778;7.094;2024-01-16T09:07:12;9.87;;;1.80;;
5845;SDS011;2949;50.778;7.094;2024-01-16T09:09:40;10.60;;;1.90;;
5845;SDS011;2949;50.778;7.094;2024-01-16T09:12:07;7.13;;;1.97;;
5845;SDS011;2949;50.778;7.094;2024-01-16T09:14:35;12.13;;;2.13;;
5845;SDS011;2949;50.778;7.094;2024-01-16T09:17:01;8.07;;;1.77;;
5845;SDS011;2949;50.778;7.094;2024-01-16T09:19:28;8.67;;;2.27;;
5845;SDS011;2949;50.778;7.094;2024-01-16T09:21:54;6.93;;;2.10;;
5845;SDS011;2949;50.778;7.094;2024-01-16T09:24:20;16.73;;;1.90;;
5845;SDS011;2949;50.778;7.094;2024-01-16T09:26:45;7.87;;;2.60;;
5845;SDS011;2949;50.778;7.094;2024-01-16T09:29:11;2.93;;;1.90;;
5845;SDS011;2949;50.778;7.094;2024-01-16T09:31:37;7.17;;;1.30;;
5845;SDS011;2949;50.778;7.094;2024-01-16T09:34:03;9.77;;;1.80;;
5845;SDS011;2949;50.778;7.094;2024-01-16T09:36:29;5.73;;;1.90;;
5845;SDS011;2949;50.778;7.094;2024-01-16T09:38:54;8.10;;;1.90;;
5845;SDS011;2949;50.778;7.094;2024-01-16T09:41:20;2.70;;;1.50;;
5845;SDS011;2949;50.778;7.094;2024-01-16T09:43:46;6.57;;;1.83;;
5845;SDS011;2949;50.778;7.094;2024-01-16T09:46:13;15.50;;;1.67;;
5845;SDS011;2949;50.778;7.094;2024-01-16T09:48:41;5.80;;;2.13;;
5845;SDS011;2949;50.778;7.094;2024-01-16T09:51:09;6.00;;;1.47;;
5845;SDS011;2949;50.778;7.094;2024-01-16T09:53:39;9.00;;;1.83;;
5845;SDS011;2949;50.778;7.094;2024-01-16T09:56:09;8.97;;;2.50;;
5845;SDS011;2949;50.778;7.094;2024-01-16T09:58:41;10.90;;;1.80;;
5845;SDS011;2949;50.778;7.094;2024-01-16T10:01:09;7.30;;;1.73;;
5845;SDS011;2949;50.778;7.094;2024-01-16T10:03:36;6.93;;;1.87;;
5845;SDS011;2949;50.778;7.094;2024-01-16T10:06:03;6.40;;;2.00;;
5845;SDS011;2949;50.778;7.094;2024-01-16T10:08:31;7.00;;;1.93;;
5845;SDS011;2949;50.778;7.094;2024-01-16T10:10:57;5.07;;;1.57;;
5845;SDS011;2949;50.778;7.094;2024-01-16T10:13:23;6.77;;;1.83;;
5845;SDS011;2949;50.778;7.094;2024-01-16T10:15:49;7.50;;;1.73;;
5845;SDS011;2949;50.778;7.094;2024-01-16T10:18:25;7.40;;;2.10;;
5845;SDS011;2949;50.778;7.094;2024-01-16T10:20:52;14.70;;;1.60;;
5845;SDS011;2949;50.778;7.094;2024-01-16T10:23:31;7.23;;;1.97;;
5845;SDS011;2949;50.778;7.094;2024-01-16T10:26:09;4.23;;;1.67;;
5845;SDS011;2949;50.778;7.094;2024-01-16T10:28:37;8.77;;;2.10;;
5845;SDS011;2949;50.778;7.094;2024-01-16T10:31:04;7.63;;;1.83;;
5845;SDS011;2949;50.778;7.094;2024-01-16T10:33:31;4.27;;;1.57;;
5845;SDS011;2949;50.778;7.094;2024-01-16T10:38:35;6.70;;;2.03;;
5845;SDS011;2949;50.778;7.094;2024-01-16T10:41:14;7.17;;;2.23;;
5845;SDS011;2949;50.778;7.094;2024-01-16T10:43:42;5.17;;;1.80;;
5845;SDS011;2949;50.778;7.094;2024-01-16T10:46:12;4.47;;;2.10;;
5845;SDS011;2949;50.778;7.094;2024-01-16T10:48:39;10.10;;;1.80;;
5845;SDS011;2949;50.778;7.094;2024-01-16T10:51:07;8.00;;;2.00;;
5845;SDS011;2949;50.778;7.094;2024-01-16T10:53:43;8.90;;;1.87;;
5845;SDS011;2949;50.778;7.094;2024-01-16T10:56:12;6.43;;;1.93;;
5845;SDS011;2949;50.778;7.094;2024-01-16T10:58:40;10.07;;;1.50;;
5845;SDS011;2949;50.778;7.094;2024-01-16T11:01:09;4.53;;;1.90;;
5845;SDS011;2949;50.778;7.094;2024-01-16T11:03:40;8.17;;;3.53;;
5845;SDS011;2949;50.778;7.094;2024-01-16T11:06:08;6.80;;;2.10;;
5845;SDS011;2949;50.778;7.094;2024-01-16T11:08:36;4.57;;;1.50;;
5845;SDS011;2949;50.778;7.094;2024-01-16T11:11:02;6.70;;;2.03;;
5845;SDS011;2949;50.778;7.094;2024-01-16T11:13:32;4.70;;;2.33;;
5845;SDS011;2949;50.778;7.094;2024-01-16T11:15:59;12.60;;;2.30;;
5845;SDS011;2949;50.778;7.094;2024-01-16T11:18:27;9.40;;;2.50;;
5845;SDS011;2949;50.778;7.094;2024-01-16T11:20:56;9.03;;;2.40;;
5845;SDS011;2949;50.778;7.094;2024-01-16T11:23:23;6.40;;;2.10;;
5845;SDS011;2949;50.778;7.094;2024-01-16T11:25:49;7.53;;;1.90;;
5845;SDS011;2949;50.778;7.094;2024-01-16T11:28:14;6.63;;;1.63;;
5845;SDS011;2949;50.778;7.094;2024-01-16T11:30:41;12.40;;;4.50;;
5845;SDS011;2949;50.778;7.094;2024-01-16T11:33:42;6.47;;;1.47;;
5845;SDS011;2949;50.778;7.094;2024-01-16T11:36:00;10.67;;;1.43;;
5845;SDS011;2949;50.778;7.094;2024-01-16T11:38:26;4.23;;;1.87;;
5845;SDS011;2949;50.778;7.094;2024-01-16T11:40:54;8.23;;;1.57;;
5845;SDS011;2949;50.778;7.094;2024-01-16T11:46:02;8.30;;;1.70;;
5845;SDS011;2949;50.778;7.094;2024-01-16T11:48:29;4.67;;;1.40;;
5845;SDS011;2949;50.778;7.094;2024-01-16T11:50:54;10.70;;;1.97;;
5845;SDS011;2949;50.778;7.094;2024-01-16T11:58:54;7.73;;;1.90;;
5845;SDS011;2949;50.778;7.094;2024-01-16T12:01:33;4.57;;;1.20;;
5845;SDS011;2949;50.778;7.094;2024-01-16T12:04:04;6.27;;;1.60;;
5845;SDS011;2949;50.778;7.094;2024-01-16T12:06:34;4.93;;;1.30;;
5845;SDS011;2949;50.778;7.094;2024-01-16T12:09:16;2.63;;;1.67;;
5845;SDS011;2949;50.778;7.094;2024-01-16T12:11:43;7.43;;;1.40;;
5845;SDS011;2949;50.778;7.094;2024-01-16T12:14:10;5.13;;;1.77;;
5845;SDS011;2949;50.778;7.094;2024-01-16T12:16:39;4.43;;;1.37;;
5845;SDS011;2949;50.778;7.094;2024-01-16T12:19:08;4.10;;;1.37;;
5845;SDS011;2949;50.778;7.094;2024-01-16T12:21:34;3.20;;;1.37;;
5845;SDS011;2949;50.778;7.094;2024-01-16T12:24:04;6.27;;;1.77;;
5845;SDS011;2949;50.778;7.094;2024-01-16T12:26:29;6.47;;;1.87;;
5845;SDS011;2949;50.778;7.094;2024-01-16T12:28:56;10.90;;;1.90;;
5845;SDS011;2949;50.778;7.094;2024-01-16T12:31:22;4.40;;;2.80;;
5845;SDS011;2949;50.778;7.094;2024-01-16T12:33:49;7.27;;;2.00;;
5845;SDS011;2949;50.778;7.094;2024-01-16T12:36:17;9.77;;;2.37;;
5845;SDS011;2949;50.778;7.094;2024-01-16T12:38:44;10.33;;;2.23;;
5845;SDS011;2949;50.778;7.094;2024-01-16T12:41:10;4.57;;;1.60;;
5845;SDS011;2949;50.778;7.094;2024-01-16T12:43:37;5.87;;;1.57;;
5845;SDS011;2949;50.778;7.094;2024-01-16T12:46:03;13.70;;;2.40;;
5845;SDS011;2949;50.778;7.094;2024-01-16T12:48:29;7.53;;;2.00;;
5845;SDS011;2949;50.778;7.094;2024-01-16T12:51:01;7.83;;;1.90;;
5845;SDS011;2949;50.778;7.094;2024-01-16T12:53:27;8.23;;;1.60;;
5845;SDS011;2949;50.778;7.094;2024-01-16T12:56:00;8.23;;;1.40;;
5845;SDS011;2949;50.778;7.094;2024-01-16T12:58:34;6.57;;;1.73;;
5845;SDS011;2949;50.778;7.094;2024-01-16T13:03:50;8.53;;;2.20;;
5845;SDS011;2949;50.778;7.094;2024-01-16T13:06:19;7.27;;;1.90;;
5845;SDS011;2949;50.778;7.094;2024-01-16T13:08:46;8.40;;;1.93;;
5845;SDS011;2949;50.778;7.094;2024-01-16T13:11:12;4.03;;;1.77;;
5845;SDS011;2949;50.778;7.094;2024-01-16T13:13:40;12.23;;;2.13;;
5845;SDS011;2949;50.778;7.094;2024-01-16T13:16:06;14.93;;;2.63;;
5845;SDS011;2949;50.778;7.094;2024-01-16T13:18:32;6.07;;;1.53;;
5845;SDS011;2949;50.778;7.094;2024-01-16T13:20:58;8.50;;;2.63;;
5845;SDS011;2949;50.778;7.094;2024-01-16T13:23:25;8.33;;;1.63;;
5845;SDS011;2949;50.778;7.094;2024-01-16T13:25:52;4.10;;;1.90;;
5845;SDS011;2949;50.778;7.094;2024-01-16T13:28:18;9.00;;;2.17;;
5845;SDS011;2949;50.778;7.094;2024-01-16T13:30:45;5.33;;;2.40;;
5845;SDS011;2949;50.778;7.094;2024-01-16T13:33:12;9.57;;;2.50;;
5845;SDS011;2949;50.778;7.094;2024-01-16T13:35:39;4.10;;;1.70;;
5845;SDS011;2949;50.778;7.094;2024-01-16T13:38:06;5.13;;;1.93;;
5845;SDS011;2949;50.778;7.094;2024-01-16T13:40:33;4.47;;;1.80;;
5845;SDS011;2949;50.778;7.094;2024-01-16T13:42:59;6.53;;;1.67;;
5845;SDS011;2949;50.778;7.094;2024-01-16T13:45:25;11.10;;;1.93;;
5845;SDS011;2949;50.778;7.094;2024-01-16T13:47:54;2.43;;;1.43;;
5845;SDS011;2949;50.778;7.094;2024-01-16T13:50:20;6.13;;;2.13;;
5845;SDS011;2949;50.778;7.094;2024-01-16T13:52:46;5.40;;;2.27;;
5845;SDS011;2949;50.778;7.094;2024-01-16T13:55:12;8.10;;;2.57;;
5845;SDS011;2949;50.778;7.094;2024-01-16T13:57:38;8.63;;;2.33;;
5845;SDS011;2949;50.778;7.094;2024-01-16T14:00:04;8.60;;;2.20;;
5845;SDS011;2949;50.778;7.094;2024-01-16T14:02:31;7.93;;;1.97;;
5845;SDS011;2949;50.778;7.094;2024-01-16T14:04:59;7.27;;;1.80;;
5845;SDS011;2949;50.778;7.094;2024-01-16T14:07:25;10.70;;;2.30;;
5845;SDS011;2949;50.778;7.094;2024-01-16T14:09:50;6.20;;;2.07;;
5845;SDS011;2949;50.778;7.094;2024-01-16T14:12:16;4.10;;;1.83;;
5845;SDS011;2949;50.778;7.094;2024-01-16T14:14:43;4.97;;;2.03;;
5845;SDS011;2949;50.778;7.094;2024-01-16T14:17:09;3.37;;;2.10;;
5845;SDS011;2949;50.778;7.094;2024-01-16T14:19:35;5.10;;;2.10;;
5845;SDS011;2949;50.778;7.094;2024-01-16T14:22:02;5.87;;;2.47;;
5845;SDS011;2949;50.778;7.094;2024-01-16T14:24:27;3.27;;;1.90;;
5845;SDS011;2949;50.778;7.094;2024-01-16T14:26:53;4.73;;;2.17;;
5845;SDS011;2949;50.778;7.094;2024-01-16T14:29:21;6.80;;;2.10;;
5845;SDS011;2949;50.778;7.094;2024-01-16T14:31:47;6.10;;;2.27;;
5845;SDS011;2949;50.778;7.094;2024-01-16T14:34:13;5.10;;;1.97;;
5845;SDS011;2949;50.778;7.094;2024-01-16T14:36:40;4.40;;;2.53;;
5845;SDS011;2949;50.778;7.094;2024-01-16T14:39:06;5.40;;;2.40;;
5845;SDS011;2949;50.778;7.094;2024-01-16T14:41:34;6.87;;;2.30;;
5845;SDS011;2949;50.778;7.094;2024-01-16T14:44:00;4.33;;;1.90;;
5845;SDS011;2949;50.778;7.094;2024-01-16T14:46:26;11.33;;;1.80;;
5845;SDS011;2949;50.778;7.094;2024-01-16T14:48:51;4.53;;;2.03;;
5845;SDS011;2949;50.778;7.094;2024-01-16T14:51:17;8.10;;;1.73;;
5845;SDS011;2949;50.778;7.094;2024-01-16T14:53:42;5.47;;;2.10;;
5845;SDS011;2949;50.778;7.094;2024-01-16T14:56:08;2.67;;;1.53;;
5845;SDS011;2949;50.778;7.094;2024-01-16T14:58:34;5.70;;;2.23;;
5845;SDS011;2949;50.778;7.094;2024-01-16T15:01:00;2.57;;;1.70;;
5845;SDS011;2949;50.778;7.094;2024-01-16T15:03:25;7.70;;;1.70;;
5845;SDS011;2949;50.778;7.094;2024-01-16T15:05:51;6.93;;;2.60;;
5845;SDS011;2949;50.778;7.094;2024-01-16T15:08:18;7.30;;;2.30;;
5845;SDS011;2949;50.778;7.094;2024-01-16T15:10:44;3.23;;;1.97;;
5845;SDS011;2949;50.778;7.094;2024-01-16T15:13:10;5.20;;;1.90;;
5845;SDS011;2949;50.778;7.094;2024-01-16T15:15:37;4.70;;;2.30;;
5845;SDS011;2949;50.778;7.094;2024-01-16T15:18:03;2.60;;;2.13;;
5845;SDS011;2949;50.778;7.094;2024-01-16T15:20:28;7.33;;;2.40;;